Time;durP1;ratioP1;P1;durP2;ratioP2;P2;SDS_P1;SDS_P2;PMS_P1;PMS_P2;Temp;Humidity;BMP_temperature;BMP_pressure;BME280_temperature;BME280_humidity;BME280_pressure;Samples;Min_cycle;Max_cycle;Signal;HPM_P1;HPM_P2
2022/04/22 00:02:01;;;;;;;11.02;5.57;;;;;;;10.16;69.23;100813.34;5074678;28;20514;-70
2022/04/22 00:04:27;;;;;;;14.15;6.47;;;;;;;10.13;69.37;100819.88;5093861;28;20509;-70
2022/04/22 00:06:52;;;;;;;12.88;6.68;;;;;;;10.10;69.69;100821.09;5091683;28;20024;-70
2022/04/22 00:09:17;;;;;;;11.50;5.78;;;;;;;10.06;70.13;100817.19;5093484;28;20159;-70
2022/04/22 00:11:43;;;;;;;13.27;6.70;;;;;;;10.04;70.10;100813.88;5112743;28;20031;-70
2022/04/22 00:14:08;;;;;;;14.70;7.50;;;;;;;10.00;70.53;100809.97;5111998;28;20027;-70
2022/04/22 00:16:34;;;;;;;16.58;6.65;;;;;;;9.98;70.36;100806.69;5111813;28;20034;-70
2022/04/22 00:18:59;;;;;;;15.07;6.85;;;;;;;9.97;70.78;100809.53;5111650;28;20035;-70
2022/04/22 00:21:26;;;;;;;11.30;5.90;;;;;;;9.91;70.48;100800.47;5111557;28;20038;-70
2022/04/22 00:23:52;;;;;;;13.00;7.30;;;;;;;9.90;70.97;100805.97;5111711;28;20542;-70
2022/04/22 00:26:19;;;;;;;13.48;7.15;;;;;;;9.89;71.45;100807.84;5111779;27;20454;-70
2022/04/22 00:28:45;;;;;;;13.25;6.53;;;;;;;9.86;71.55;100797.56;5111383;28;20038;-70
2022/04/22 00:31:10;;;;;;;11.98;6.50;;;;;;;9.79;71.78;100794.84;5111925;28;20718;-70
2022/04/22 00:33:36;;;;;;;12.32;7.47;;;;;;;9.79;71.80;100789.50;5111639;28;20028;-70
2022/04/22 00:36:02;;;;;;;13.65;6.50;;;;;;;9.75;72.13;100790.94;5111912;28;20478;-70
2022/04/22 00:38:28;;;;;;;12.63;6.63;;;;;;;9.76;71.98;100795.22;5111978;28;20039;-70
2022/04/22 00:40:55;;;;;;;12.05;6.13;;;;;;;9.71;72.48;100799.47;5111957;28;20032;-70
2022/04/22 00:43:23;;;;;;;12.65;6.47;;;;;;;9.69;72.74;100796.19;5090878;28;20153;-70
2022/04/22 00:45:50;;;;;;;14.65;6.85;;;;;;;9.68;72.66;100811.34;5111662;28;20038;-70
2022/04/22 00:48:16;;;;;;;14.48;6.97;;;;;;;9.62;73.21;100793.47;5110530;28;20031;-70
2022/04/22 00:50:43;;;;;;;13.55;6.47;;;;;;;9.62;73.20;100796.97;5111747;28;20031;-70
2022/04/22 00:53:09;;;;;;;15.55;7.40;;;;;;;9.58;73.36;100786.88;5111355;28;20398;-70
2022/04/22 00:55:39;;;;;;;14.63;6.95;;;;;;;9.57;73.61;100791.38;5111031;28;20027;-70
2022/04/22 00:58:05;;;;;;;14.02;7.22;;;;;;;9.56;74.02;100780.91;5111297;28;20550;-70
2022/04/22 01:00:31;;;;;;;12.52;6.88;;;;;;;9.53;74.20;100791.94;5111391;28;20046;-70
2022/04/22 01:02:57;;;;;;;15.88;6.70;;;;;;;9.48;73.96;100779.22;5111062;28;20035;-70
2022/04/22 01:10:52;;;;;;;21.10;9.32;;;;;;;9.45;75.04;100784.91;5111502;28;20474;-70
2022/04/22 01:13:17;;;;;;;14.43;7.68;;;;;;;9.41;75.02;100781.81;5110972;28;20032;-70
2022/04/22 01:15:43;;;;;;;13.50;7.03;;;;;;;9.40;74.86;100782.00;5111326;28;20031;-70
2022/04/22 01:18:10;;;;;;;14.20;7.82;;;;;;;9.38;75.56;100779.56;5111172;28;20399;-70
2022/04/22 01:20:35;;;;;;;17.17;8.57;;;;;;;9.35;75.53;100779.94;5110634;28;20058;-70
2022/04/22 01:23:01;;;;;;;17.40;8.45;;;;;;;9.35;75.66;100773.75;5110761;28;20059;-70
2022/04/22 01:25:26;;;;;;;17.10;9.57;;;;;;;9.31;76.18;100772.50;5110965;28;20027;-70
2022/04/22 01:27:51;;;;;;;15.10;7.30;;;;;;;9.21;75.80;100751.53;5110719;28;20776;-70
2022/04/22 01:30:21;;;;;;;14.65;7.25;;;;;;;9.27;76.40;100769.38;5110772;28;20062;-70
2022/04/22 01:32:55;;;;;;;16.45;7.05;;;;;;;9.23;75.99;100762.00;5110684;28;20039;-70
2022/04/22 01:35:22;;;;;;;16.70;8.48;;;;;;;9.10;76.87;100733.41;5110717;28;20026;-70
2022/04/22 01:37:47;;;;;;;24.55;9.20;;;;;;;9.19;76.93;100756.22;5110755;28;20490;-70
2022/04/22 01:40:14;;;;;;;13.80;6.93;;;;;;;9.12;77.33;100753.50;5110655;28;20023;-70
2022/04/22 01:42:40;;;;;;;13.90;7.25;;;;;;;9.13;77.32;100762.31;5110741;28;20890;-70
2022/04/22 01:45:07;;;;;;;15.25;8.00;;;;;;;9.05;77.51;100752.59;5110475;28;20876;-70
2022/04/22 01:47:32;;;;;;;17.33;8.57;;;;;;;9.06;77.19;100746.25;5103522;28;20027;-70
2022/04/22 01:49:58;;;;;;;15.70;7.57;;;;;;;9.04;77.93;100752.78;5110352;28;20058;-70
2022/04/22 01:52:25;;;;;;;15.45;8.73;;;;;;;9.02;77.80;100752.16;5110525;28;20043;-70
2022/04/22 01:54:51;;;;;;;16.05;7.53;;;;;;;9.00;78.07;100755.81;5110211;28;20035;-70
2022/04/22 01:57:17;;;;;;;19.60;9.00;;;;;;;8.97;78.31;100758.88;5112328;28;20054;-70
2022/04/22 01:59:44;;;;;;;16.95;8.10;;;;;;;8.97;78.25;100763.38;5111915;28;20390;-70
2022/04/22 02:02:10;;;;;;;14.70;8.00;;;;;;;8.94;78.46;100753.09;5110328;28;20110;-70
2022/04/22 02:04:35;;;;;;;16.67;8.35;;;;;;;8.90;78.27;100749.16;5110196;28;20123;-70
2022/04/22 02:07:01;;;;;;;15.23;7.32;;;;;;;8.90;78.83;100755.31;5110223;28;20031;-70
2022/04/22 02:09:26;;;;;;;17.75;7.07;;;;;;;8.88;78.82;100753.84;5109992;28;20039;-70
2022/04/22 02:11:51;;;;;;;15.10;7.03;;;;;;;8.87;78.90;100761.00;5110117;28;20043;-70
2022/04/22 02:14:16;;;;;;;15.32;7.22;;;;;;;8.83;79.14;100750.91;5109992;28;20084;-70
2022/04/22 02:16:42;;;;;;;19.73;7.95;;;;;;;8.85;79.32;100754.22;5109066;28;20035;-70
2022/04/22 02:19:07;;;;;;;15.60;7.68;;;;;;;8.83;79.31;100761.56;5109957;28;20057;-70
2022/04/22 02:21:32;;;;;;;16.35;7.90;;;;;;;8.71;79.31;100745.28;5109908;28;20028;-70
2022/04/22 02:23:58;;;;;;;16.48;8.30;;;;;;;8.77;80.05;100755.97;5109917;28;20054;-70
2022/04/22 02:26:23;;;;;;;15.77;8.52;;;;;;;8.81;79.96;100758.28;5109795;28;20066;-70
2022/04/22 02:28:49;;;;;;;17.83;8.68;;;;;;;8.77;79.70;100755.16;5109726;28;20059;-70
2022/04/22 02:31:14;;;;;;;18.40;8.88;;;;;;;8.76;80.06;100761.50;5108351;28;20040;-70
2022/04/22 02:33:41;;;;;;;18.15;7.82;;;;;;;8.74;80.08;100753.69;5090190;28;20039;-70
2022/04/22 02:36:08;;;;;;;17.00;7.72;;;;;;;8.72;80.40;100754.88;5109500;28;20032;-70
2022/04/22 02:38:35;;;;;;;15.68;7.68;;;;;;;8.69;80.63;100750.78;5109818;28;20038;-70
2022/04/22 02:46:29;;;;;;;18.50;9.85;;;;;;;8.64;80.67;100745.19;5109746;28;20046;-70
2022/04/22 02:48:59;;;;;;;16.40;8.43;;;;;;;8.61;81.09;100745.56;5109641;28;20403;-70
2022/04/22 02:51:25;;;;;;;20.15;9.18;;;;;;;8.53;81.38;100733.19;5109484;28;20114;-70
2022/04/22 02:53:51;;;;;;;16.98;8.90;;;;;;;8.55;81.54;100747.13;5109273;28;20031;-70
2022/04/22 02:56:18;;;;;;;23.02;8.68;;;;;;;8.46;81.35;100724.34;5109385;28;20049;-70
2022/04/22 02:58:44;;;;;;;18.38;9.38;;;;;;;8.46;81.77;100721.69;5109396;28;20757;-70
2022/04/22 03:01:10;;;;;;;18.85;8.02;;;;;;;8.51;81.50;100716.63;5109420;28;20019;-69
2022/04/22 03:03:35;;;;;;;20.50;9.75;;;;;;;8.50;82.02;100724.78;5109210;28;20039;-70
2022/04/22 03:06:00;;;;;;;15.95;8.50;;;;;;;8.47;82.18;100722.50;5109110;28;20031;-70
2022/04/22 03:08:26;;;;;;;19.67;9.93;;;;;;;8.48;82.31;100724.13;5107518;28;20044;-70
2022/04/22 03:10:51;;;;;;;17.33;8.73;;;;;;;8.44;82.08;100720.22;5109146;28;20119;-70
2022/04/22 03:13:17;;;;;;;19.80;8.40;;;;;;;8.41;82.65;100723.22;5108923;28;20055;-70
2022/04/22 03:15:42;;;;;;;18.30;9.98;;;;;;;8.37;82.46;100728.06;5108016;28;20023;-70
2022/04/22 03:18:09;;;;;;;18.83;9.20;;;;;;;8.35;82.70;100725.59;5109442;28;20040;-70
2022/04/22 03:20:34;;;;;;;18.52;9.18;;;;;;;8.30;82.84;100716.53;5109216;28;20031;-70
2022/04/22 03:22:59;;;;;;;18.30;9.63;;;;;;;8.31;82.79;100728.81;5109160;28;20081;-70
2022/04/22 03:25:25;;;;;;;19.98;9.23;;;;;;;8.29;82.99;100725.50;5101523;28;20020;-70
2022/04/22 03:27:51;;;;;;;18.42;9.45;;;;;;;8.24;83.25;100723.41;5089562;28;20035;-70
2022/04/22 03:30:17;;;;;;;19.13;9.32;;;;;;;8.21;82.97;100725.63;5089508;28;20020;-70
2022/04/22 03:32:42;;;;;;;20.42;9.27;;;;;;;8.20;82.85;100735.44;5089575;28;20051;-70
2022/04/22 03:35:08;;;;;;;19.80;9.73;;;;;;;8.17;83.55;100729.63;5089607;28;20361;-70
2022/04/22 03:37:34;;;;;;;17.08;9.05;;;;;;;8.13;83.25;100723.88;5089568;28;20395;-70
2022/04/22 03:39:59;;;;;;;18.42;9.90;;;;;;;8.08;83.92;100721.75;5108571;28;20027;-70
2022/04/22 03:42:25;;;;;;;18.58;9.18;;;;;;;8.06;83.48;100710.50;5108760;28;20046;-70
2022/04/22 03:44:50;;;;;;;18.13;9.52;;;;;;;8.03;83.62;100718.84;5108521;28;20044;-70
2022/04/22 03:47:16;;;;;;;18.45;8.88;;;;;;;8.01;84.15;100701.44;5107460;28;20131;-70
2022/04/22 03:49:41;;;;;;;20.75;10.27;;;;;;;7.99;83.94;100706.94;5109024;28;20028;-70
2022/04/22 03:52:07;;;;;;;20.55;10.63;;;;;;;7.98;84.18;100713.25;5109207;28;20085;-70
2022/04/22 03:54:32;;;;;;;20.23;8.77;;;;;;;7.94;84.74;100697.84;5110610;28;20070;-70
2022/04/22 03:59:41;;;;;;;18.88;9.93;;;;;;;7.96;84.85;100707.28;5107984;28;20039;-70
2022/04/22 04:02:07;;;;;;;20.67;9.80;;;;;;;7.95;84.95;100707.47;5108473;28;20024;-70
2022/04/22 04:04:33;;;;;;;19.55;9.63;;;;;;;7.93;84.91;100704.19;5108573;28;20723;-70
2022/04/22 04:06:58;;;;;;;21.38;9.73;;;;;;;7.79;85.28;100688.06;5108443;28;20505;-70
2022/04/22 04:17:40;;;;;;;20.17;11.27;;;;;;;7.90;85.78;100700.88;5108850;28;20516;-70
2022/04/22 04:25:35;;;;;;;18.95;9.75;;;;;;;7.95;85.42;100712.78;5112388;28;20498;-70
2022/04/22 04:28:02;;;;;;;21.05;10.60;;;;;;;7.92;86.28;100715.81;5112143;28;20055;-70
2022/04/22 04:30:28;;;;;;;20.77;10.43;;;;;;;7.89;86.38;100709.03;5111914;28;20038;-70
2022/04/22 04:32:53;;;;;;;22.20;11.68;;;;;;;7.85;86.34;100697.94;5110711;28;20436;-70
2022/04/22 04:35:18;;;;;;;21.08;9.85;;;;;;;7.89;86.58;100696.59;5111338;28;20027;-70
2022/04/22 04:37:44;;;;;;;24.08;12.38;;;;;;;7.85;86.79;100691.81;5111526;28;20028;-70
2022/04/22 04:40:10;;;;;;;22.42;9.63;;;;;;;7.91;86.91;100701.69;5111959;28;20086;-70
2022/04/22 04:42:35;;;;;;;19.10;9.80;;;;;;;7.93;86.66;100701.53;5111799;28;20050;-70
2022/04/22 04:45:01;;;;;;;21.40;11.05;;;;;;;7.94;87.43;100700.50;5111214;28;20518;-70
2022/04/22 04:47:26;;;;;;;17.83;9.43;;;;;;;7.93;87.29;100691.72;5111870;28;20039;-70
2022/04/22 04:49:51;;;;;;;18.40;9.68;;;;;;;7.94;87.46;100700.50;5111771;28;20027;-70
2022/04/22 04:52:17;;;;;;;20.70;9.23;;;;;;;7.95;87.19;100697.69;5111699;28;20028;-70
2022/04/22 04:54:42;;;;;;;19.98;11.30;;;;;;;7.96;87.87;100709.94;5091997;28;20028;-70
2022/04/22 04:57:08;;;;;;;19.52;10.32;;;;;;;7.93;88.59;100688.25;5092016;28;20422;-70
2022/04/22 04:59:34;;;;;;;21.48;10.57;;;;;;;7.99;88.75;100695.47;5090560;28;20059;-70
2022/04/22 05:01:59;;;;;;;22.48;11.10;;;;;;;8.11;87.91;100709.94;5091994;28;20550;-70
2022/04/22 05:04:25;;;;;;;20.35;10.30;;;;;;;8.16;88.11;100702.25;5111016;28;20028;-70
2022/04/22 05:06:50;;;;;;;20.13;10.32;;;;;;;8.26;88.05;100701.97;5111459;28;20051;-70
2022/04/22 05:09:15;;;;;;;27.88;11.23;;;;;;;8.48;87.52;100705.53;5110006;28;20032;-70
2022/04/22 05:11:41;;;;;;;21.33;11.50;;;;;;;8.65;87.37;100701.66;5111155;28;20028;-70
2022/04/22 05:14:07;;;;;;;22.08;11.90;;;;;;;8.84;86.99;100702.06;5110727;28;20118;-70
2022/04/22 05:16:33;;;;;;;22.40;12.38;;;;;;;9.07;85.44;100705.34;5101470;28;20035;-70
2022/04/22 05:18:58;;;;;;;20.77;11.48;;;;;;;9.16;85.07;100706.03;5073334;28;20110;-70
2022/04/22 05:21:23;;;;;;;23.58;12.90;;;;;;;9.16;85.12;100706.88;5091430;28;20032;-70
2022/04/22 05:23:49;;;;;;;21.10;12.60;;;;;;;9.24;85.00;100695.25;5091131;28;20028;-70
2022/04/22 05:26:14;;;;;;;21.85;9.80;;;;;;;9.32;84.65;100695.13;5091240;28;20028;-70
2022/04/22 05:28:40;;;;;;;20.10;11.25;;;;;;;9.36;84.16;100679.63;5091528;28;20024;-70
2022/04/22 05:33:50;;;;;;;19.45;11.25;;;;;;;9.70;83.31;100697.47;5110918;28;20039;-70
2022/04/22 05:36:15;;;;;;;21.40;11.90;;;;;;;9.74;83.38;100704.03;5110958;28;20548;-70
2022/04/22 05:38:41;;;;;;;21.38;11.70;;;;;;;9.81;83.06;100704.09;5110598;28;20023;-70
2022/04/22 05:41:06;;;;;;;19.50;10.80;;;;;;;9.90;82.83;100694.09;5110715;28;20042;-70
2022/04/22 05:43:32;;;;;;;20.58;10.98;;;;;;;9.94;82.55;100698.03;5110524;28;20024;-70
2022/04/22 05:45:57;;;;;;;21.00;11.05;;;;;;;10.03;82.51;100703.00;5110576;28;20027;-70
2022/04/22 05:48:22;;;;;;;24.40;13.02;;;;;;;10.05;82.31;100705.47;5110985;28;20040;-70
2022/04/22 05:50:48;;;;;;;22.13;11.93;;;;;;;10.10;82.44;100706.50;5110749;28;20024;-70
2022/04/22 05:53:13;;;;;;;22.38;13.40;;;;;;;9.88;83.05;100686.31;5110519;28;20092;-70
2022/04/22 05:55:38;;;;;;;21.75;12.40;;;;;;;9.95;83.20;100695.16;5110466;28;20023;-70
2022/04/22 05:58:04;;;;;;;22.27;11.77;;;;;;;9.99;83.13;100706.25;5090856;28;20112;-70
2022/04/22 06:00:31;;;;;;;21.83;11.75;;;;;;;9.95;83.31;100713.81;5106993;28;20061;-70
2022/04/22 06:02:57;;;;;;;22.02;11.77;;;;;;;9.94;83.85;100712.16;5090592;28;20097;-70
2022/04/22 06:05:23;;;;;;;22.23;13.05;;;;;;;10.00;83.38;100714.03;5090801;28;20020;-70
2022/04/22 06:10:34;;;;;;;21.30;12.20;;;;;;;10.17;83.16;100703.91;5110163;28;20108;-70
2022/04/22 06:13:00;;;;;;;23.15;14.20;;;;;;;10.18;83.05;100702.88;5110223;28;20469;-70
2022/04/22 06:15:25;;;;;;;22.63;12.57;;;;;;;10.18;83.26;100702.03;5109772;28;20110;-70
2022/04/22 06:17:51;;;;;;;25.88;12.48;;;;;;;10.17;83.41;100709.22;5109964;28;20050;-70
2022/04/22 06:20:17;;;;;;;23.35;12.45;;;;;;;10.17;83.65;100698.56;5110098;28;20501;-70
2022/04/22 06:22:43;;;;;;;23.35;11.35;;;;;;;10.21;83.19;100701.66;5109829;28;20038;-70
2022/04/22 06:25:09;;;;;;;22.80;12.82;;;;;;;10.14;83.17;100687.47;5109682;28;20032;-70
2022/04/22 06:27:39;;;;;;;27.17;14.00;;;;;;;10.06;83.91;100680.44;5109437;28;20032;-70
2022/04/22 06:30:13;;;;;;;23.67;12.70;;;;;;;10.20;83.70;100697.34;5108245;28;20391;-70
2022/04/22 06:32:41;;;;;;;23.50;13.35;;;;;;;10.23;83.80;100703.09;5109862;28;20486;-70
2022/04/22 06:35:08;;;;;;;21.92;12.30;;;;;;;10.25;83.13;100698.41;5109589;28;20395;-70
2022/04/22 06:37:36;;;;;;;23.08;12.70;;;;;;;10.23;83.36;100695.09;5109501;28;20397;-70
2022/04/22 06:45:51;;;;;;;22.17;12.70;;;;;;;10.45;82.69;100695.00;5109436;28;20148;-70
2022/04/22 06:48:18;;;;;;;22.63;12.00;;;;;;;10.49;82.85;100696.25;5109515;28;20136;-70
2022/04/22 06:50:46;;;;;;;22.67;11.98;;;;;;;10.66;82.00;100704.72;5109576;28;20429;-70
2022/04/22 06:53:13;;;;;;;23.20;13.75;;;;;;;10.79;81.49;100699.41;5109408;28;20450;-70
2022/04/22 06:55:39;;;;;;;25.48;13.13;;;;;;;10.94;81.20;100691.25;5109541;28;20114;-70
2022/04/22 06:58:09;;;;;;;21.92;12.57;;;;;;;10.99;80.83;100688.78;5109429;28;20107;-70
2022/04/22 07:00:34;;;;;;;21.58;12.05;;;;;;;11.17;79.99;100697.03;5109376;28;20390;-70
2022/04/22 07:03:00;;;;;;;23.63;12.85;;;;;;;11.26;79.26;100704.81;5109408;28;20034;-70
2022/04/22 07:05:26;;;;;;;21.17;11.00;;;;;;;11.24;78.94;100696.19;5109449;28;20035;-70
2022/04/22 07:07:51;;;;;;;21.58;13.10;;;;;;;11.22;79.15;100701.75;5109498;28;20108;-70
2022/04/22 07:10:17;;;;;;;22.95;13.40;;;;;;;11.24;78.46;100697.03;5109459;28;20035;-70
2022/04/22 07:12:43;;;;;;;23.40;12.45;;;;;;;11.21;79.26;100693.94;5109102;28;20076;-70
2022/04/22 07:15:09;;;;;;;21.83;12.18;;;;;;;11.28;79.03;100695.59;5109235;28;20028;-70
2022/04/22 07:17:36;;;;;;;20.60;10.95;;;;;;;11.34;78.17;100686.78;5109088;28;20035;-71
2022/04/22 07:20:06;;;;;;;20.83;11.52;;;;;;;11.54;77.77;100685.94;5109131;28;20034;-71
2022/04/22 07:22:32;;;;;;;22.13;12.35;;;;;;;11.69;77.11;100685.72;5108746;28;20043;-70
2022/04/22 07:24:58;;;;;;;19.58;11.38;;;;;;;11.77;76.88;100682.81;5102173;28;20025;-71
2022/04/22 07:27:27;;;;;;;20.75;10.38;;;;;;;11.79;76.24;100681.59;5108769;28;20031;-71
2022/04/22 07:29:57;;;;;;;20.45;11.70;;;;;;;11.82;76.28;100681.16;5108606;28;20034;-71
2022/04/22 07:32:22;;;;;;;21.38;11.00;;;;;;;11.81;75.87;100681.34;5107651;28;20042;-71
2022/04/22 07:34:48;;;;;;;21.77;11.70;;;;;;;11.89;75.10;100681.16;5107543;28;20487;-71
2022/04/22 07:37:13;;;;;;;20.90;11.93;;;;;;;12.12;74.74;100675.34;5108925;28;20758;-72
2022/04/22 07:39:39;;;;;;;19.95;10.68;;;;;;;12.51;73.40;100676.22;5108695;28;20063;-71
2022/04/22 07:42:10;;;;;;;17.92;10.60;;;;;;;12.89;71.21;100676.19;5108157;28;20440;-71
2022/04/22 07:47:22;;;;;;;19.75;12.02;;;;;;;12.46;72.01;100678.69;5109137;28;20444;-70
2022/04/22 07:49:48;;;;;;;18.20;10.60;;;;;;;12.28;72.61;100679.41;5108796;28;20027;-71
2022/04/22 07:52:13;;;;;;;19.85;11.65;;;;;;;12.12;73.22;100679.88;5108901;28;20059;-71
2022/04/22 07:54:39;;;;;;;21.42;11.05;;;;;;;11.96;73.51;100684.66;5112569;28;20079;-71
2022/04/22 07:57:04;;;;;;;20.95;11.90;;;;;;;11.79;73.90;100672.75;5112736;28;20024;-71
2022/04/22 07:59:30;;;;;;;22.08;11.63;;;;;;;11.77;75.16;100678.28;5112753;28;20455;-71
2022/04/22 08:01:58;;;;;;;21.65;12.13;;;;;;;11.77;75.83;100680.16;5112642;28;20031;-72
2022/04/22 08:04:25;;;;;;;18.98;10.60;;;;;;;11.84;74.98;100675.59;5112623;27;20080;-71
2022/04/22 08:06:51;;;;;;;22.95;12.57;;;;;;;11.87;74.87;100667.22;5112415;28;20104;-71
2022/04/22 08:09:16;;;;;;;20.83;11.68;;;;;;;11.79;74.64;100670.91;5111377;28;20538;-71
2022/04/22 08:11:43;;;;;;;21.27;11.93;;;;;;;11.68;75.34;100671.50;5112466;28;20114;-71
2022/04/22 08:14:11;;;;;;;19.90;10.38;;;;;;;11.68;75.63;100674.19;5112409;28;20105;-71
2022/04/22 08:16:37;;;;;;;21.98;11.43;;;;;;;11.76;75.41;100667.81;5112439;28;20110;-71
2022/04/22 08:19:02;;;;;;;20.17;11.10;;;;;;;11.85;74.86;100675.41;5112511;28;20114;-71
2022/04/22 08:21:34;;;;;;;21.15;11.52;;;;;;;12.02;75.24;100666.94;5112189;28;20039;-72
2022/04/22 08:24:00;;;;;;;;;;;;;;;12.33;74.59;100641.31;5112790;28;20024;-71
2022/04/22 08:26:26;;;;;;;20.42;10.73;;;;;;;12.58;72.52;100655.59;5112127;28;19998;-71
2022/04/22 08:28:51;;;;;;;18.73;9.82;;;;;;;12.74;71.76;100654.28;5112101;28;20119;-72
2022/04/22 08:31:17;;;;;;;19.35;10.80;;;;;;;12.68;71.74;100639.91;5111630;28;20042;-72
2022/04/22 08:33:45;;;;;;;19.90;10.65;;;;;;;12.90;71.61;100656.41;5112092;28;20096;-72
2022/04/22 08:36:11;;;;;;;20.05;10.75;;;;;;;13.21;70.45;100653.94;5111979;28;20031;-72
2022/04/22 08:38:37;;;;;;;21.77;11.90;;;;;;;13.45;68.94;100657.66;5110531;28;20039;-71
2022/04/22 08:41:02;;;;;;;20.50;10.40;;;;;;;13.60;68.81;100636.72;5111794;28;20095;-71
2022/04/22 08:43:30;;;;;;;18.75;10.32;;;;;;;13.85;67.49;100649.22;5111175;28;20092;-71
2022/04/22 08:45:55;;;;;;;20.73;12.50;;;;;;;13.82;67.08;100645.13;5111779;28;20104;-71
2022/04/22 08:51:08;;;;;;;18.42;10.00;;;;;;;13.73;67.04;100635.75;5110737;28;20047;-71
2022/04/22 08:53:35;;;;;;;20.02;11.63;;;;;;;13.75;67.09;100637.16;5111329;28;20031;-72
2022/04/22 08:56:02;;;;;;;18.85;9.80;;;;;;;13.88;67.49;100644.22;5111480;28;20540;-71
2022/04/22 08:58:29;;;;;;;19.33;10.77;;;;;;;13.85;66.05;100647.34;5111487;28;20046;-71
2022/04/22 09:00:57;;;;;;;17.85;10.85;;;;;;;13.87;67.15;100644.47;5111585;28;20023;-71
2022/04/22 09:03:26;;;;;;;17.67;9.55;;;;;;;13.70;65.06;100634.34;5111522;28;20390;-71
2022/04/22 09:05:51;;;;;;;19.90;9.80;;;;;;;13.59;65.58;100630.50;5110586;28;20019;-71
2022/04/22 09:08:18;;;;;;;19.65;9.93;;;;;;;13.53;66.49;100630.59;5111471;28;20035;-71
2022/04/22 09:10:44;;;;;;;21.10;10.57;;;;;;;13.72;66.29;100626.06;5111431;28;20051;-71
2022/04/22 09:13:26;;;;;;;19.27;10.52;;;;;;;13.93;64.76;100630.97;5111588;28;20469;-71
2022/04/22 09:15:52;;;;;;;16.83;8.85;;;;;;;13.92;63.13;100626.66;5109770;28;20042;-72
2022/04/22 09:18:18;;;;;;;19.63;10.55;;;;;;;13.68;63.86;100611.47;5111280;28;20035;-71
2022/04/22 09:20:46;;;;;;;19.58;10.70;;;;;;;13.77;65.17;100612.81;5109923;28;20024;-71
2022/04/22 09:23:23;;;;;;;20.88;10.27;;;;;;;13.91;64.63;100608.09;5110980;28;20057;-71
2022/04/22 09:25:48;;;;;;;16.42;9.00;;;;;;;14.10;64.83;100615.09;5109633;28;20039;-71
2022/04/22 09:28:13;;;;;;;18.25;9.80;;;;;;;14.28;63.58;100600.84;5110963;28;20140;-71
2022/04/22 09:30:41;;;;;;;18.25;10.45;;;;;;;14.33;62.26;100617.06;5110956;27;20126;-71
2022/04/22 09:33:09;;;;;;;16.92;9.40;;;;;;;14.28;62.25;100608.88;5110541;28;20042;-72
2022/04/22 09:42:38;;;;;;;16.80;9.43;;;;;;;14.35;62.61;100611.47;5110986;28;20027;-70
2022/04/22 09:43:51;;;;;;;19.38;10.05;;;;;;;14.71;60.52;100599.81;5111268;28;20054;-71
2022/04/22 09:46:33;;;;;;;20.33;10.32;;;;;;;14.64;61.23;100596.41;5090789;28;20466;-71
2022/04/22 09:48:59;;;;;;;18.63;8.85;;;;;;;14.58;60.76;100586.59;5093350;28;20032;-71
2022/04/22 09:51:30;;;;;;;15.70;8.60;;;;;;;14.57;60.37;100569.69;5109635;28;20024;-71
2022/04/22 09:54:10;;;;;;;14.90;9.00;;;;;;;14.95;59.38;100575.69;5110028;27;20676;-71
2022/04/22 09:56:37;;;;;;;17.48;10.10;;;;;;;15.38;58.90;100569.16;5110502;28;20051;-72
2022/04/22 09:59:26;;;;;;;15.65;9.02;;;;;;;15.66;57.16;100574.59;5110424;28;20926;-71
2022/04/22 10:01:52;;;;;;;19.63;10.30;;;;;;;15.07;57.03;100573.84;5110361;28;20108;-71
2022/04/22 10:04:19;;;;;;;17.02;9.13;;;;;;;14.83;57.61;100578.38;5110152;28;20521;-71
2022/04/22 10:06:45;;;;;;;16.13;8.57;;;;;;;14.72;57.66;100566.56;5110141;28;20867;-71
2022/04/22 10:09:14;;;;;;;26.90;9.43;;;;;;;14.58;57.06;100565.94;5110229;28;20499;-71
2022/04/22 10:11:41;;;;;;;15.75;8.80;;;;;;;14.49;56.84;100570.00;5103348;27;20032;-71
2022/04/22 10:14:11;;;;;;;15.98;9.13;;;;;;;14.47;58.09;100577.44;5090395;28;20028;-71
2022/04/22 10:16:37;;;;;;;16.75;9.35;;;;;;;14.57;58.11;100563.50;5090649;28;20111;-71
2022/04/22 10:19:03;;;;;;;16.63;9.52;;;;;;;14.61;56.72;100548.56;5110012;28;20035;-71
2022/04/22 10:21:29;;;;;;;17.10;9.50;;;;;;;14.56;56.07;100556.50;5109867;28;20031;-71
2022/04/22 10:23:56;;;;;;;16.52;9.52;;;;;;;14.49;56.93;100548.53;5110086;28;20023;-71
2022/04/22 10:26:22;;;;;;;16.73;9.10;;;;;;;14.47;56.80;100556.78;5109676;28;20034;-70
2022/04/22 10:28:49;;;;;;;18.42;10.27;;;;;;;14.47;56.63;100550.63;5109786;28;20042;-71
2022/04/22 10:31:15;;;;;;;16.88;9.38;;;;;;;14.46;57.19;100560.53;5109911;28;20043;-71
2022/04/22 10:33:45;;;;;;;18.45;10.63;;;;;;;14.29;57.87;100556.03;5109336;27;20057;-71
2022/04/22 10:36:16;;;;;;;18.33;10.13;;;;;;;14.16;58.75;100551.69;5109494;28;20027;-71
2022/04/22 10:38:45;;;;;;;16.00;9.10;;;;;;;14.03;58.69;100550.00;5109703;28;20027;-71
2022/04/22 10:41:17;;;;;;;17.42;10.15;;;;;;;14.00;59.03;100562.00;5109551;28;20031;-71
2022/04/22 10:43:45;;;;;;;16.77;9.27;;;;;;;14.00;59.33;100561.19;5109373;28;20072;-72
2022/04/22 10:49:13;;;;;;;35.13;10.13;;;;;;;14.04;58.93;100551.63;5085823;28;20126;-71
2022/04/22 10:52:03;;;;;;;18.92;11.57;;;;;;;14.01;59.70;100552.91;5108116;28;20070;-71
2022/04/22 10:54:51;;;;;;;18.77;11.05;;;;;;;14.01;60.00;100547.53;5109322;28;20024;-71
2022/04/22 10:57:18;;;;;;;19.30;11.98;;;;;;;14.11;60.31;100547.00;5109585;28;20547;-71
2022/04/22 10:59:43;;;;;;;22.45;11.30;;;;;;;14.13;60.22;100531.50;5108144;28;20028;-71
2022/04/22 11:02:31;;;;;;;18.77;11.25;;;;;;;14.25;59.89;100539.56;5109407;28;20024;-71
2022/04/22 11:05:22;;;;;;;20.67;12.82;;;;;;;14.27;59.98;100544.72;5109382;28;20015;-71
2022/04/22 11:07:50;;;;;;;17.52;10.77;;;;;;;14.30;59.95;100544.25;5109365;28;20427;-70
2022/04/22 11:10:24;;;;;;;29.02;10.20;;;;;;;14.27;59.48;100537.47;5109245;28;20112;-70
2022/04/22 11:12:57;;;;;;;20.27;10.20;;;;;;;14.24;59.13;100535.25;5107869;28;20068;-71
2022/04/22 11:15:46;;;;;;;21.48;11.25;;;;;;;14.15;59.18;100544.69;5109075;28;20076;-70
2022/04/22 11:18:16;;;;;;;19.67;11.93;;;;;;;14.06;58.93;100543.38;5108636;28;20034;-70
2022/04/22 11:20:43;;;;;;;16.77;9.95;;;;;;;14.01;59.12;100544.84;5108612;28;20106;-70
2022/04/22 11:23:13;;;;;;;18.08;10.68;;;;;;;13.94;59.83;100541.47;5091090;28;20379;-71
2022/04/22 11:25:40;;;;;;;17.10;9.25;;;;;;;13.89;60.72;100538.63;5089491;28;20032;-70
2022/04/22 11:28:07;;;;;;;21.85;10.85;;;;;;;13.87;61.09;100537.22;5110304;28;20076;-71
2022/04/22 11:30:35;;;;;;;20.75;11.52;;;;;;;13.87;61.36;100534.53;5113359;28;20031;-72
2022/04/22 11:33:21;;;;;;;16.73;10.80;;;;;;;13.91;61.27;100544.59;5113019;28;20115;-71
2022/04/22 11:35:52;;;;;;;18.13;10.52;;;;;;;13.89;60.52;100540.50;5107824;28;20047;-70
2022/04/22 11:38:17;;;;;;;18.25;11.35;;;;;;;13.89;60.52;100527.09;5106489;28;20032;-70
2022/04/22 11:40:44;;;;;;;18.42;10.48;;;;;;;14.03;60.57;100544.63;5093242;28;20028;-69
2022/04/22 11:43:12;;;;;;;19.08;9.75;;;;;;;14.11;59.75;100541.63;5093329;28;20044;-68
2022/04/22 11:45:43;;;;;;;18.75;10.77;;;;;;;14.12;59.58;100526.34;5112467;28;20047;-69
2022/04/22 11:48:13;;;;;;;19.83;10.05;;;;;;;14.25;59.83;100526.16;5112627;28;20440;-69
2022/04/22 11:50:42;;;;;;;17.67;10.73;;;;;;;14.39;59.50;100524.94;5111332;28;20032;-69
2022/04/22 11:53:16;;;;;;;15.63;9.27;;;;;;;14.52;59.12;100528.47;5112841;27;20106;-69
2022/04/22 11:55:42;;;;;;;19.08;11.50;;;;;;;14.59;58.97;100523.81;5112679;28;20050;-69
2022/04/22 11:58:13;;;;;;;21.67;9.50;;;;;;;14.59;58.68;100524.66;5112375;28;20023;-69
2022/04/22 12:06:12;;;;;;;16.85;9.52;;;;;;;14.66;57.80;100511.94;5112566;28;20046;-69
2022/04/22 12:09:03;;;;;;;18.42;10.55;;;;;;;14.83;57.71;100509.38;5112249;28;20027;-69
2022/04/22 12:11:29;;;;;;;16.30;9.55;;;;;;;15.03;57.30;100500.97;5112212;28;20529;-70
2022/04/22 12:13:55;;;;;;;16.05;8.38;;;;;;;15.17;57.07;100493.50;5112371;28;20036;-69
2022/04/22 12:16:26;;;;;;;16.48;8.80;;;;;;;15.22;55.96;100501.66;5111108;28;20483;-70